Terminal Aerodrome Forecast
Issued by NWS La Crosse, WI

Home | Current Version | Previous Version | Text Only | Print | Product List | Glossary On
Versions: 1 2 3 4 5 6 7 8 9 10 11 12 13 14 15 16 17 18 19 20 21
000
FTUS43 KARX 202335
TAFRST
TAF
KRST 202335Z 2100/2124 30004KT P6SM SCT070
     FM210700 VRB04KT P6SM SCT040 BKN070
     FM210900 VRB04KT P6SM VCTS SCT040CB BKN060
     FM211300 19007KT P6SM SCT040 BKN060
     FM211800 23008KT P6SM BKN050=

USA.gov is the U.S. government's official web portal to all federal, state and local government web resources and services.